sensor_id;sensor_type;location;lat;lon;timestamp;pressure;altitude;pressure_sealevel;temperature;humidity
75604;BME280;64187;51.010;13.792;2024-03-08T00:01:10;100883.75;;;2.73;68.46
75604;BME280;64187;51.010;13.792;2024-03-08T00:06:09;100882.28;;;2.39;71.24
75604;BME280;64187;51.010;13.792;2024-03-08T00:11:08;100878.03;;;2.53;70.57
75604;BME280;64187;51.010;13.792;2024-03-08T00:16:07;100865.94;;;2.34;71.84
75604;BME280;64187;51.010;13.792;2024-03-08T00:21:08;100872.50;;;2.23;71.39
75604;BME280;64187;51.010;13.792;2024-03-08T00:26:07;100870.84;;;2.22;72.00
75604;BME280;64187;51.010;13.792;2024-03-08T00:31:06;100864.00;;;1.80;72.99
75604;BME280;64187;51.010;13.792;2024-03-08T00:36:05;100870.66;;;1.84;73.45
75604;BME280;64187;51.010;13.792;2024-03-08T00:41:06;100867.91;;;2.01;71.39
75604;BME280;64187;51.010;13.792;2024-03-08T00:46:05;100868.59;;;2.03;71.11
75604;BME280;64187;51.010;13.792;2024-03-08T00:51:04;100870.00;;;1.82;73.04
75604;BME280;64187;51.010;13.792;2024-03-08T00:56:03;100863.63;;;1.19;73.95
75604;BME280;64187;51.010;13.792;2024-03-08T01:01:03;100865.78;;;1.32;74.55
75604;BME280;64187;51.010;13.792;2024-03-08T01:06:03;100860.94;;;1.11;75.47
75604;BME280;64187;51.010;13.792;2024-03-08T01:11:03;100859.78;;;1.22;74.91
75604;BME280;64187;51.010;13.792;2024-03-08T01:16:03;100855.41;;;0.63;76.93
75604;BME280;64187;51.010;13.792;2024-03-08T01:21:02;100851.09;;;0.71;77.04
75604;BME280;64187;51.010;13.792;2024-03-08T01:26:01;100836.28;;;0.76;76.87
75604;BME280;64187;51.010;13.792;2024-03-08T01:31:01;100836.59;;;0.81;77.01
75604;BME280;64187;51.010;13.792;2024-03-08T01:36:00;100836.94;;;1.11;75.85
75604;BME280;64187;51.010;13.792;2024-03-08T01:40:59;100820.44;;;0.91;75.43
75604;BME280;64187;51.010;13.792;2024-03-08T01:45:58;100816.94;;;0.66;77.08
75604;BME280;64187;51.010;13.792;2024-03-08T01:51:00;100816.13;;;0.57;77.89
75604;BME280;64187;51.010;13.792;2024-03-08T01:55:59;100803.63;;;0.66;77.29
75604;BME280;64187;51.010;13.792;2024-03-08T02:00:59;100797.16;;;0.85;76.40
75604;BME280;64187;51.010;13.792;2024-03-08T02:05:58;100803.81;;;0.73;76.86
75604;BME280;64187;51.010;13.792;2024-03-08T02:10:58;100807.47;;;0.63;77.31
75604;BME280;64187;51.010;13.792;2024-03-08T02:15:58;100798.75;;;0.37;78.41
75604;BME280;64187;51.010;13.792;2024-03-08T02:20:59;100795.63;;;0.99;76.25
75604;BME280;64187;51.010;13.792;2024-03-08T02:25:59;100785.81;;;0.50;77.69
75604;BME280;64187;51.010;13.792;2024-03-08T02:30:58;100789.50;;;0.57;76.86
75604;BME280;64187;51.010;13.792;2024-03-08T02:35:57;100788.97;;;0.54;77.59
75604;BME280;64187;51.010;13.792;2024-03-08T02:40:55;100778.97;;;0.31;77.93
75604;BME280;64187;51.010;13.792;2024-03-08T02:45:54;100781.13;;;0.44;77.47
75604;BME280;64187;51.010;13.792;2024-03-08T02:50:53;100780.13;;;1.11;75.12
75604;BME280;64187;51.010;13.792;2024-03-08T02:55:52;100780.00;;;0.55;76.16
75604;BME280;64187;51.010;13.792;2024-03-08T03:00:51;100774.78;;;0.29;78.02
75604;BME280;64187;51.010;13.792;2024-03-08T03:05:50;100774.13;;;0.18;78.46
75604;BME280;64187;51.010;13.792;2024-03-08T03:10:49;100772.28;;;0.27;78.19
75604;BME280;64187;51.010;13.792;2024-03-08T03:15:48;100771.59;;;0.01;79.33
75604;BME280;64187;51.010;13.792;2024-03-08T03:20:47;100769.78;;;0.17;78.52
75604;BME280;64187;51.010;13.792;2024-03-08T03:25:46;100766.63;;;0.14;79.30
75604;BME280;64187;51.010;13.792;2024-03-08T03:30:45;100766.13;;;0.18;78.64
75604;BME280;64187;51.010;13.792;2024-03-08T03:35:45;100764.97;;;0.21;79.13
75604;BME280;64187;51.010;13.792;2024-03-08T03:40:44;100752.13;;;0.08;79.61
75604;BME280;64187;51.010;13.792;2024-03-08T03:45:44;100754.34;;;0.37;78.40
75604;BME280;64187;51.010;13.792;2024-03-08T03:50:43;100764.47;;;0.42;78.11
75604;BME280;64187;51.010;13.792;2024-03-08T03:55:43;100756.50;;;0.34;77.77
75604;BME280;64187;51.010;13.792;2024-03-08T04:00:41;100754.16;;;0.72;77.09
75604;BME280;64187;51.010;13.792;2024-03-08T04:05:40;100746.53;;;0.52;77.59
75604;BME280;64187;51.010;13.792;2024-03-08T04:10:40;100745.50;;;0.61;77.79
75604;BME280;64187;51.010;13.792;2024-03-08T04:15:40;100741.53;;;0.57;77.74
75604;BME280;64187;51.010;13.792;2024-03-08T04:20:39;100749.19;;;0.60;77.58
75604;BME280;64187;51.010;13.792;2024-03-08T04:25:39;100744.50;;;0.79;77.51
75604;BME280;64187;51.010;13.792;2024-03-08T04:30:38;100744.50;;;0.54;78.55
75604;BME280;64187;51.010;13.792;2024-03-08T04:35:42;100738.53;;;0.69;77.40
75604;BME280;64187;51.010;13.792;2024-03-08T04:40:41;100740.66;;;0.32;78.51
75604;BME280;64187;51.010;13.792;2024-03-08T04:45:40;100729.22;;;0.73;77.14
75604;BME280;64187;51.010;13.792;2024-03-08T04:50:41;100733.38;;;0.51;76.93
75604;BME280;64187;51.010;13.792;2024-03-08T04:55:40;100738.84;;;0.41;78.13
75604;BME280;64187;51.010;13.792;2024-03-08T05:00:39;100738.19;;;0.47;76.88
75604;BME280;64187;51.010;13.792;2024-03-08T05:05:38;100726.88;;;0.45;77.93
75604;BME280;64187;51.010;13.792;2024-03-08T05:10:37;100727.38;;;0.57;77.43
75604;BME280;64187;51.010;13.792;2024-03-08T05:15:36;100715.22;;;0.87;76.32
75604;BME280;64187;51.010;13.792;2024-03-08T05:20:35;100725.53;;;0.25;77.66
75604;BME280;64187;51.010;13.792;2024-03-08T05:25:36;100722.72;;;0.26;77.73
75604;BME280;64187;51.010;13.792;2024-03-08T05:30:35;100717.88;;;0.13;77.68
75604;BME280;64187;51.010;13.792;2024-03-08T05:35:35;100717.19;;;4.84;100.00
75604;BME280;64187;51.010;13.792;2024-03-08T05:40:34;100703.34;;;8.28;71.88
75604;BME280;64187;51.010;13.792;2024-03-08T05:45:33;100705.94;;;8.48;61.51
75604;BME280;64187;51.010;13.792;2024-03-08T05:50:33;100708.31;;;8.88;57.21
75604;BME280;64187;51.010;13.792;2024-03-08T05:55:35;100699.59;;;8.29;57.82
75604;BME280;64187;51.010;13.792;2024-03-08T06:00:34;100707.72;;;8.22;56.17
75604;BME280;64187;51.010;13.792;2024-03-08T06:05:35;100709.03;;;8.45;55.56
75604;BME280;64187;51.010;13.792;2024-03-08T06:10:34;100716.00;;;7.89;56.00
75604;BME280;64187;51.010;13.792;2024-03-08T06:15:34;100716.47;;;8.17;55.54
75604;BME280;64187;51.010;13.792;2024-03-08T06:20:35;100726.38;;;6.27;54.21
75604;BME280;64187;51.010;13.792;2024-03-08T06:25:35;100723.34;;;3.55;61.75
75604;BME280;64187;51.010;13.792;2024-03-08T06:30:34;100719.06;;;2.49;67.45
75604;BME280;64187;51.010;13.792;2024-03-08T06:35:33;100713.78;;;2.18;69.38
75604;BME280;64187;51.010;13.792;2024-03-08T06:40:33;100710.88;;;2.04;71.08
75604;BME280;64187;51.010;13.792;2024-03-08T06:45:32;100713.41;;;1.98;71.83
75604;BME280;64187;51.010;13.792;2024-03-08T06:50:31;100709.63;;;2.15;71.53
75604;BME280;64187;51.010;13.792;2024-03-08T06:55:31;100705.94;;;2.16;71.80
75604;BME280;64187;51.010;13.792;2024-03-08T07:00:31;100707.84;;;1.84;74.11
75604;BME280;64187;51.010;13.792;2024-03-08T07:05:30;100705.25;;;1.99;73.29
75604;BME280;64187;51.010;13.792;2024-03-08T07:10:29;100694.91;;;2.42;72.03
75604;BME280;64187;51.010;13.792;2024-03-08T07:15:29;100694.50;;;2.07;73.62
75604;BME280;64187;51.010;13.792;2024-03-08T07:20:27;100679.41;;;2.90;71.20
75604;BME280;64187;51.010;13.792;2024-03-08T07:25:27;100684.13;;;3.03;69.66
75604;BME280;64187;51.010;13.792;2024-03-08T07:30:28;100685.22;;;3.53;68.11
75604;BME280;64187;51.010;13.792;2024-03-08T07:35:53;100678.31;;;3.44;68.92
75604;BME280;64187;51.010;13.792;2024-03-08T07:40:51;100681.41;;;3.62;68.26
75604;BME280;64187;51.010;13.792;2024-03-08T07:45:51;100681.06;;;3.51;68.46
75604;BME280;64187;51.010;13.792;2024-03-08T07:50:51;100673.47;;;3.54;68.91
75604;BME280;64187;51.010;13.792;2024-03-08T07:55:50;100667.69;;;3.51;68.91
75604;BME280;64187;51.010;13.792;2024-03-08T08:00:49;100667.50;;;3.88;67.73
75604;BME280;64187;51.010;13.792;2024-03-08T08:05:48;100670.19;;;4.10;67.50
75604;BME280;64187;51.010;13.792;2024-03-08T08:10:48;100656.75;;;4.53;65.76
75604;BME280;64187;51.010;13.792;2024-03-08T08:15:48;100652.31;;;4.67;65.22
75604;BME280;64187;51.010;13.792;2024-03-08T08:20:47;100649.53;;;4.53;65.11
75604;BME280;64187;51.010;13.792;2024-03-08T08:25:47;100643.91;;;4.77;64.43
75604;BME280;64187;51.010;13.792;2024-03-08T08:30:48;100638.66;;;4.90;63.84
75604;BME280;64187;51.010;13.792;2024-03-08T08:35:47;100634.94;;;4.91;64.06
75604;BME280;64187;51.010;13.792;2024-03-08T08:40:47;100630.84;;;4.95;64.86
75604;BME280;64187;51.010;13.792;2024-03-08T08:45:46;100633.13;;;5.39;63.04
75604;BME280;64187;51.010;13.792;2024-03-08T08:50:46;100620.41;;;5.61;61.84
75604;BME280;64187;51.010;13.792;2024-03-08T08:55:45;100614.81;;;5.63;61.86
75604;BME280;64187;51.010;13.792;2024-03-08T09:00:44;100607.41;;;5.72;60.28
75604;BME280;64187;51.010;13.792;2024-03-08T09:05:43;100601.91;;;6.07;59.26
75604;BME280;64187;51.010;13.792;2024-03-08T09:10:43;100595.47;;;6.01;60.17
75604;BME280;64187;51.010;13.792;2024-03-08T09:15:42;100593.63;;;6.08;59.02
75604;BME280;64187;51.010;13.792;2024-03-08T09:20:42;100581.22;;;6.27;58.83
75604;BME280;64187;51.010;13.792;2024-03-08T09:25:41;100575.00;;;6.33;58.49
75604;BME280;64187;51.010;13.792;2024-03-08T09:30:42;100564.44;;;6.38;58.48
75604;BME280;64187;51.010;13.792;2024-03-08T09:35:56;100561.66;;;6.85;57.65
75604;BME280;64187;51.010;13.792;2024-03-08T09:41:01;100558.59;;;6.68;57.09
75604;BME280;64187;51.010;13.792;2024-03-08T09:46:00;100549.00;;;6.92;56.17
75604;BME280;64187;51.010;13.792;2024-03-08T09:51:05;100553.41;;;7.31;55.76
75604;BME280;64187;51.010;13.792;2024-03-08T09:56:04;100547.28;;;7.49;54.19
75604;BME280;64187;51.010;13.792;2024-03-08T10:01:03;100550.78;;;7.57;53.45
75604;BME280;64187;51.010;13.792;2024-03-08T10:06:06;100543.03;;;7.67;54.66
75604;BME280;64187;51.010;13.792;2024-03-08T10:11:05;100533.66;;;7.76;53.77
75604;BME280;64187;51.010;13.792;2024-03-08T10:16:04;100529.59;;;7.92;53.09
75604;BME280;64187;51.010;13.792;2024-03-08T10:21:05;100521.25;;;8.00;53.04
75604;BME280;64187;51.010;13.792;2024-03-08T10:26:13;100518.09;;;7.46;53.49
75604;BME280;64187;51.010;13.792;2024-03-08T10:31:17;100513.03;;;8.13;52.26
75604;BME280;64187;51.010;13.792;2024-03-08T10:36:17;100507.06;;;8.05;51.89
75604;BME280;64187;51.010;13.792;2024-03-08T10:41:18;100498.47;;;8.39;51.53
75604;BME280;64187;51.010;13.792;2024-03-08T10:46:30;100496.34;;;8.23;51.27
75604;BME280;64187;51.010;13.792;2024-03-08T10:51:32;100493.16;;;8.51;51.02
75604;BME280;64187;51.010;13.792;2024-03-08T10:56:31;100496.91;;;8.69;50.66
75604;BME280;64187;51.010;13.792;2024-03-08T11:01:30;100490.03;;;8.54;52.46
75604;BME280;64187;51.010;13.792;2024-03-08T11:06:41;100482.56;;;8.87;50.99
75604;BME280;64187;51.010;13.792;2024-03-08T11:11:40;100483.72;;;8.79;50.30
75604;BME280;64187;51.010;13.792;2024-03-08T11:16:43;100467.22;;;9.17;50.83
75604;BME280;64187;51.010;13.792;2024-03-08T11:21:43;100455.00;;;9.57;49.17
75604;BME280;64187;51.010;13.792;2024-03-08T11:26:45;100450.88;;;9.42;48.47
75604;BME280;64187;51.010;13.792;2024-03-08T11:31:44;100452.28;;;9.45;48.31
75604;BME280;64187;51.010;13.792;2024-03-08T11:36:47;100433.59;;;9.32;49.98
75604;BME280;64187;51.010;13.792;2024-03-08T11:41:46;100435.56;;;9.36;48.89
75604;BME280;64187;51.010;13.792;2024-03-08T11:46:45;100410.13;;;9.91;48.60
75604;BME280;64187;51.010;13.792;2024-03-08T11:51:51;100409.06;;;9.92;47.82
75604;BME280;64187;51.010;13.792;2024-03-08T11:56:52;100403.56;;;9.87;47.62
75604;BME280;64187;51.010;13.792;2024-03-08T12:02:02;100392.22;;;10.13;46.34
75604;BME280;64187;51.010;13.792;2024-03-08T12:07:02;100387.00;;;10.47;45.02
75604;BME280;64187;51.010;13.792;2024-03-08T12:12:07;100390.91;;;10.51;44.65
75604;BME280;64187;51.010;13.792;2024-03-08T12:17:06;100376.03;;;10.83;44.48
75604;BME280;64187;51.010;13.792;2024-03-08T12:22:09;100374.00;;;10.90;44.81
75604;BME280;64187;51.010;13.792;2024-03-08T12:27:19;100374.59;;;10.63;44.50
75604;BME280;64187;51.010;13.792;2024-03-08T12:32:18;100367.09;;;10.82;45.76
75604;BME280;64187;51.010;13.792;2024-03-08T12:37:17;100361.19;;;10.68;45.42
75604;BME280;64187;51.010;13.792;2024-03-08T12:42:16;100344.69;;;10.70;44.94
75604;BME280;64187;51.010;13.792;2024-03-08T12:47:17;100341.03;;;10.93;44.98
75604;BME280;64187;51.010;13.792;2024-03-08T12:52:17;100333.91;;;10.58;45.63
75604;BME280;64187;51.010;13.792;2024-03-08T12:57:17;100328.47;;;10.58;45.98
75604;BME280;64187;51.010;13.792;2024-03-08T13:02:16;100324.44;;;10.89;45.67
75604;BME280;64187;51.010;13.792;2024-03-08T13:07:15;100314.56;;;10.66;46.04
75604;BME280;64187;51.010;13.792;2024-03-08T13:12:15;100307.88;;;10.86;46.18
75604;BME280;64187;51.010;13.792;2024-03-08T13:17:14;100308.47;;;11.05;46.78
75604;BME280;64187;51.010;13.792;2024-03-08T13:22:13;100293.59;;;10.90;47.05
75604;BME280;64187;51.010;13.792;2024-03-08T13:27:15;100296.72;;;11.16;46.14
75604;BME280;64187;51.010;13.792;2024-03-08T13:32:20;100285.81;;;10.94;46.54
75604;BME280;64187;51.010;13.792;2024-03-08T13:37:20;100268.66;;;10.88;46.64
75604;BME280;64187;51.010;13.792;2024-03-08T13:42:19;100278.25;;;11.13;46.81
75604;BME280;64187;51.010;13.792;2024-03-08T13:47:19;100271.63;;;11.04;46.93
75604;BME280;64187;51.010;13.792;2024-03-08T13:52:17;100263.22;;;11.22;46.35
75604;BME280;64187;51.010;13.792;2024-03-08T13:57:17;100245.69;;;10.74;47.20
75604;BME280;64187;51.010;13.792;2024-03-08T14:02:16;100249.28;;;11.13;46.18
75604;BME280;64187;51.010;13.792;2024-03-08T14:07:15;100239.91;;;10.70;46.96
75604;BME280;64187;51.010;13.792;2024-03-08T14:12:15;100237.63;;;10.96;47.07
75604;BME280;64187;51.010;13.792;2024-03-08T14:17:14;100236.47;;;10.75;47.01
75604;BME280;64187;51.010;13.792;2024-03-08T14:22:16;100222.94;;;11.09;47.47
75604;BME280;64187;51.010;13.792;2024-03-08T14:27:15;100225.88;;;10.90;47.70
75604;BME280;64187;51.010;13.792;2024-03-08T14:32:16;100222.50;;;11.00;47.02
75604;BME280;64187;51.010;13.792;2024-03-08T14:37:18;100218.25;;;10.87;47.11
75604;BME280;64187;51.010;13.792;2024-03-08T14:42:22;100208.91;;;10.78;47.66
75604;BME280;64187;51.010;13.792;2024-03-08T14:47:21;100197.34;;;10.66;48.16
75604;BME280;64187;51.010;13.792;2024-03-08T14:52:20;100200.53;;;10.63;48.44
75604;BME280;64187;51.010;13.792;2024-03-08T14:57:26;100194.81;;;10.76;48.41
75604;BME280;64187;51.010;13.792;2024-03-08T15:02:24;100179.03;;;10.73;48.02
75604;BME280;64187;51.010;13.792;2024-03-08T15:07:24;100187.00;;;10.80;48.32
75604;BME280;64187;51.010;13.792;2024-03-08T15:12:25;100178.56;;;10.59;49.21
75604;BME280;64187;51.010;13.792;2024-03-08T15:17:25;100180.69;;;10.57;49.20
75604;BME280;64187;51.010;13.792;2024-03-08T15:22:23;100174.53;;;10.62;49.20
75604;BME280;64187;51.010;13.792;2024-03-08T15:27:22;100174.47;;;10.56;49.43
75604;BME280;64187;51.010;13.792;2024-03-08T15:32:22;100161.97;;;10.55;49.55
75604;BME280;64187;51.010;13.792;2024-03-08T15:37:21;100160.41;;;10.43;49.46
75604;BME280;64187;51.010;13.792;2024-03-08T15:42:20;100162.97;;;10.32;49.88
75604;BME280;64187;51.010;13.792;2024-03-08T15:47:21;100156.72;;;10.32;50.32
75604;BME280;64187;51.010;13.792;2024-03-08T15:52:21;100146.06;;;10.42;50.63
75604;BME280;64187;51.010;13.792;2024-03-08T15:57:21;100143.88;;;10.39;51.00
75604;BME280;64187;51.010;13.792;2024-03-08T16:02:20;100154.88;;;10.04;52.59
75604;BME280;64187;51.010;13.792;2024-03-08T16:07:22;100146.53;;;9.93;52.64
75604;BME280;64187;51.010;13.792;2024-03-08T16:12:21;100150.38;;;9.81;53.19
75604;BME280;64187;51.010;13.792;2024-03-08T16:17:20;100141.47;;;9.68;54.53
75604;BME280;64187;51.010;13.792;2024-03-08T16:22:19;100142.56;;;9.67;54.38
75604;BME280;64187;51.010;13.792;2024-03-08T16:27:18;100140.78;;;9.61;54.79
75604;BME280;64187;51.010;13.792;2024-03-08T16:32:16;100140.41;;;9.41;55.12
75604;BME280;64187;51.010;13.792;2024-03-08T16:37:17;100141.84;;;9.32;55.50
75604;BME280;64187;51.010;13.792;2024-03-08T16:42:16;100139.28;;;9.13;56.26
75604;BME280;64187;51.010;13.792;2024-03-08T16:47:15;100139.88;;;8.92;56.86
75604;BME280;64187;51.010;13.792;2024-03-08T16:52:14;100146.47;;;8.84;57.19
75604;BME280;64187;51.010;13.792;2024-03-08T16:57:13;100144.22;;;8.69;57.40
75604;BME280;64187;51.010;13.792;2024-03-08T17:02:12;100140.25;;;8.60;58.68
75604;BME280;64187;51.010;13.792;2024-03-08T17:07:11;100147.38;;;8.43;58.83
75604;BME280;64187;51.010;13.792;2024-03-08T17:12:10;100140.44;;;8.47;58.79
75604;BME280;64187;51.010;13.792;2024-03-08T17:17:09;100140.44;;;8.35;59.39
75604;BME280;64187;51.010;13.792;2024-03-08T17:22:09;100141.94;;;8.31;59.41
75604;BME280;64187;51.010;13.792;2024-03-08T17:27:09;100149.34;;;8.35;59.25
75604;BME280;64187;51.010;13.792;2024-03-08T17:32:09;100139.34;;;8.24;59.89
75604;BME280;64187;51.010;13.792;2024-03-08T17:37:09;100142.38;;;8.16;60.06
75604;BME280;64187;51.010;13.792;2024-03-08T17:42:09;100133.47;;;8.15;59.75
75604;BME280;64187;51.010;13.792;2024-03-08T17:47:08;100131.41;;;7.99;60.42
75604;BME280;64187;51.010;13.792;2024-03-08T17:52:07;100130.25;;;8.07;60.38
75604;BME280;64187;51.010;13.792;2024-03-08T17:57:06;100122.34;;;7.82;61.14
75604;BME280;64187;51.010;13.792;2024-03-08T18:02:05;100129.75;;;7.86;60.68
75604;BME280;64187;51.010;13.792;2024-03-08T18:07:04;100124.81;;;7.83;60.72
75604;BME280;64187;51.010;13.792;2024-03-08T18:12:06;100131.72;;;7.79;60.90
75604;BME280;64187;51.010;13.792;2024-03-08T18:17:07;100128.00;;;7.62;61.74
75604;BME280;64187;51.010;13.792;2024-03-08T18:22:10;100118.63;;;9.59;76.49
75604;BME280;64187;51.010;13.792;2024-03-08T18:27:10;100112.59;;;10.82;67.09
75604;BME280;64187;51.010;13.792;2024-03-08T18:32:09;100110.16;;;9.56;56.76
75604;BME280;64187;51.010;13.792;2024-03-08T18:37:08;100114.31;;;8.47;59.23
75604;BME280;64187;51.010;13.792;2024-03-08T18:42:11;100113.56;;;7.86;61.86
75604;BME280;64187;51.010;13.792;2024-03-08T18:47:11;100114.03;;;7.83;62.57
75604;BME280;64187;51.010;13.792;2024-03-08T18:52:11;100108.28;;;7.49;64.21
75604;BME280;64187;51.010;13.792;2024-03-08T18:57:10;100100.06;;;7.44;64.81
75604;BME280;64187;51.010;13.792;2024-03-08T19:02:09;100097.28;;;7.51;64.78
75604;BME280;64187;51.010;13.792;2024-03-08T19:07:08;100099.50;;;7.24;66.10
75604;BME280;64187;51.010;13.792;2024-03-08T19:12:09;100099.09;;;7.39;65.45
75604;BME280;64187;51.010;13.792;2024-03-08T19:17:11;100100.91;;;6.89;67.63
75604;BME280;64187;51.010;13.792;2024-03-08T19:22:11;100096.47;;;7.32;66.46
75604;BME280;64187;51.010;13.792;2024-03-08T19:27:12;100096.69;;;7.49;65.56
75604;BME280;64187;51.010;13.792;2024-03-08T19:32:11;100085.97;;;7.61;65.18
75604;BME280;64187;51.010;13.792;2024-03-08T19:37:10;100088.69;;;7.42;65.32
75604;BME280;64187;51.010;13.792;2024-03-08T19:42:09;100084.38;;;7.23;65.51
75604;BME280;64187;51.010;13.792;2024-03-08T19:47:07;100086.78;;;7.31;65.42
75604;BME280;64187;51.010;13.792;2024-03-08T19:52:10;100084.91;;;7.31;64.69
75604;BME280;64187;51.010;13.792;2024-03-08T19:57:09;100083.34;;;7.24;64.50
75604;BME280;64187;51.010;13.792;2024-03-08T20:02:09;100074.59;;;7.10;64.79
75604;BME280;64187;51.010;13.792;2024-03-08T20:07:08;100077.81;;;7.19;64.18
75604;BME280;64187;51.010;13.792;2024-03-08T20:12:06;100072.13;;;7.08;64.57
75604;BME280;64187;51.010;13.792;2024-03-08T20:17:06;100065.75;;;7.03;63.83
75604;BME280;64187;51.010;13.792;2024-03-08T20:22:05;100065.16;;;7.19;64.22
75604;BME280;64187;51.010;13.792;2024-03-08T20:27:04;100063.44;;;6.88;64.00
75604;BME280;64187;51.010;13.792;2024-03-08T20:32:03;100057.03;;;6.89;64.10
75604;BME280;64187;51.010;13.792;2024-03-08T20:37:03;100064.78;;;6.60;64.51
75604;BME280;64187;51.010;13.792;2024-03-08T20:42:05;100059.91;;;6.32;65.37
75604;BME280;64187;51.010;13.792;2024-03-08T20:47:04;100064.47;;;6.50;64.51
75604;BME280;64187;51.010;13.792;2024-03-08T20:52:05;100053.41;;;6.40;64.49
75604;BME280;64187;51.010;13.792;2024-03-08T20:57:04;100047.25;;;6.14;65.55
75604;BME280;64187;51.010;13.792;2024-03-08T21:02:03;100047.50;;;6.06;65.81
75604;BME280;64187;51.010;13.792;2024-03-08T21:07:02;100042.25;;;5.86;66.22
75604;BME280;64187;51.010;13.792;2024-03-08T21:12:04;100041.13;;;6.00;66.09
75604;BME280;64187;51.010;13.792;2024-03-08T21:17:05;100032.53;;;5.92;66.32
75604;BME280;64187;51.010;13.792;2024-03-08T21:22:04;100027.19;;;5.85;66.36
75604;BME280;64187;51.010;13.792;2024-03-08T21:27:03;100026.84;;;5.75;66.75
75604;BME280;64187;51.010;13.792;2024-03-08T21:32:02;100017.19;;;5.99;65.82
75604;BME280;64187;51.010;13.792;2024-03-08T21:37:05;100016.78;;;5.64;66.79
75604;BME280;64187;51.010;13.792;2024-03-08T21:42:05;100011.72;;;5.80;65.94
75604;BME280;64187;51.010;13.792;2024-03-08T21:47:04;100004.56;;;5.74;66.42
75604;BME280;64187;51.010;13.792;2024-03-08T21:52:03;99998.63;;;5.66;66.42
75604;BME280;64187;51.010;13.792;2024-03-08T21:57:03;99991.66;;;5.83;65.65
75604;BME280;64187;51.010;13.792;2024-03-08T22:02:02;99990.50;;;5.72;65.60
75604;BME280;64187;51.010;13.792;2024-03-08T22:07:04;99980.75;;;5.78;65.29
75604;BME280;64187;51.010;13.792;2024-03-08T22:12:03;99972.75;;;5.71;65.40
75604;BME280;64187;51.010;13.792;2024-03-08T22:17:02;99966.56;;;5.96;64.41
75604;BME280;64187;51.010;13.792;2024-03-08T22:22:02;99956.91;;;5.88;64.81
75604;BME280;64187;51.010;13.792;2024-03-08T22:27:02;99967.16;;;5.73;65.44
75604;BME280;64187;51.010;13.792;2024-03-08T22:32:01;99953.44;;;5.81;65.03
75604;BME280;64187;51.010;13.792;2024-03-08T22:37:00;99955.56;;;5.79;64.95
75604;BME280;64187;51.010;13.792;2024-03-08T22:41:58;99953.78;;;5.66;65.50
75604;BME280;64187;51.010;13.792;2024-03-08T22:46:59;99944.75;;;5.60;65.59
75604;BME280;64187;51.010;13.792;2024-03-08T22:51:58;99929.78;;;5.71;65.13
75604;BME280;64187;51.010;13.792;2024-03-08T22:56:58;99936.34;;;5.75;65.12
75604;BME280;64187;51.010;13.792;2024-03-08T23:02:03;99927.09;;;5.71;65.43
75604;BME280;64187;51.010;13.792;2024-03-08T23:07:02;99931.03;;;5.69;65.40
75604;BME280;64187;51.010;13.792;2024-03-08T23:12:04;99926.19;;;5.59;66.05
75604;BME280;64187;51.010;13.792;2024-03-08T23:17:07;99922.72;;;5.52;66.17
75604;BME280;64187;51.010;13.792;2024-03-08T23:22:07;99910.97;;;5.46;66.46
75604;BME280;64187;51.010;13.792;2024-03-08T23:27:10;99897.22;;;5.61;66.25
75604;BME280;64187;51.010;13.792;2024-03-08T23:32:09;99899.72;;;5.63;66.14
75604;BME280;64187;51.010;13.792;2024-03-08T23:37:09;99901.09;;;5.47;66.57
75604;BME280;64187;51.010;13.792;2024-03-08T23:42:08;99894.03;;;5.52;66.56
75604;BME280;64187;51.010;13.792;2024-03-08T23:47:08;99894.38;;;5.56;66.35
75604;BME280;64187;51.010;13.792;2024-03-08T23:52:07;99897.69;;;5.58;66.33
75604;BME280;64187;51.010;13.792;2024-03-08T23:57:08;99890.06;;;5.55;66.34
